Terminal Aerodrome Forecast
Issued by NWS

Current Version | Previous Version | Graphics & Text | Print | Product List | Glossary Off
Versions: 1 2 3 4 5 6 7 8 9 10 11 12 13 14 15 16 17

304
FTUS42 KILM 191720
TAFCRE
TAF
KCRE 191720Z 1918/2018 12007KT P6SM SCT250
     FM200300 07005KT P6SM OVC070
     FM201200 14003KT 5SM BR OVC050
     FM201400 19003KT P6SM BKN025
     FM201600 20006KT P6SM SCT100=

USA.gov is the U.S. government's official web portal to all federal, state and local government web resources and services.